createdAt,value
2019-02-21T00:02:11.932Z,101334.00
2019-02-21T00:04:44.420Z,101340.00
2019-02-21T00:07:15.940Z,101340.00
2019-02-21T00:09:47.402Z,101342.00
2019-02-21T00:12:20.529Z,101341.00
2019-02-21T00:14:52.101Z,101351.00
2019-02-21T00:17:23.630Z,101344.00
2019-02-21T00:19:55.214Z,101349.00
2019-02-21T00:22:26.756Z,101346.00
2019-02-21T00:24:58.356Z,101342.00
2019-02-21T00:27:29.957Z,101343.00
2019-02-21T00:30:01.574Z,101352.00
2019-02-21T00:32:33.556Z,101340.00
2019-02-21T00:35:05.036Z,101339.00
2019-02-21T00:37:36.535Z,101338.00
2019-02-21T00:40:08.324Z,101339.00
2019-02-21T00:42:39.812Z,101336.00
2019-02-21T00:45:11.261Z,101335.00
2019-02-21T00:47:42.718Z,101333.00
2019-02-21T00:50:18.078Z,101333.00
2019-02-21T00:52:49.580Z,101342.00
2019-02-21T00:55:21.048Z,101331.00
2019-02-21T00:57:52.558Z,101345.00
2019-02-21T01:00:24.063Z,101348.00
2019-02-21T01:02:55.559Z,101357.00
2019-02-21T01:05:27.031Z,101344.00
2019-02-21T01:07:58.498Z,101321.00
2019-02-21T01:10:30.009Z,101333.00
2019-02-21T01:13:02.666Z,101286.00
2019-02-21T01:15:34.424Z,101331.00
2019-02-21T01:18:05.972Z,101343.00
2019-02-21T01:20:37.480Z,101344.00
2019-02-21T01:23:08.986Z,101347.00
2019-02-21T01:25:40.484Z,101346.00
2019-02-21T01:28:11.990Z,101340.00
2019-02-21T01:30:44.897Z,101338.00
2019-02-21T01:33:16.300Z,101343.00
2019-02-21T01:35:47.763Z,101345.00
2019-02-21T01:38:19.240Z,101339.00
2019-02-21T01:40:50.731Z,101329.00
2019-02-21T01:43:22.244Z,101329.00
2019-02-21T01:45:53.718Z,101330.00
2019-02-21T01:48:25.213Z,101321.00
2019-02-21T01:50:56.682Z,101330.00
2019-02-21T01:53:28.171Z,101330.00
2019-02-21T01:55:59.642Z,101323.00
2019-02-21T01:58:31.138Z,101331.00
2019-02-21T02:01:08.527Z,101325.00
2019-02-21T02:03:36.278Z,101317.00
2019-02-21T02:06:07.816Z,101323.00
2019-02-21T02:08:39.303Z,101327.00
2019-02-21T02:11:11.962Z,101328.00
2019-02-21T02:13:43.451Z,101331.00
2019-02-21T02:16:16.259Z,101334.00
2019-02-21T02:18:49.302Z,101338.00
2019-02-21T02:21:20.757Z,101326.00
2019-02-21T02:23:52.304Z,101333.00
2019-02-21T02:26:23.830Z,101335.00
2019-02-21T02:28:56.784Z,101328.00
2019-02-21T02:31:28.261Z,101331.00
2019-02-21T02:33:59.762Z,101335.00
2019-02-21T02:36:31.466Z,101335.00
2019-02-21T02:39:04.208Z,101332.00
2019-02-21T02:41:37.253Z,101335.00
2019-02-21T02:44:08.800Z,101336.00
2019-02-21T02:46:40.251Z,101325.00
2019-02-21T02:49:12.087Z,101336.00
2019-02-21T02:51:46.303Z,101323.00
2019-02-21T02:54:17.882Z,101334.00
2019-02-21T02:56:49.382Z,101332.00
2019-02-21T02:59:21.221Z,101335.00
2019-02-21T03:01:52.729Z,101334.00
2019-02-21T03:04:24.350Z,101335.00
2019-02-21T03:06:55.825Z,101331.00
2019-02-21T03:09:29.158Z,101339.00
2019-02-21T03:12:00.575Z,101332.00
2019-02-21T03:14:32.052Z,101332.00
2019-02-21T03:17:03.593Z,101333.00
2019-02-21T03:19:35.042Z,101340.00
2019-02-21T03:22:06.584Z,101336.00
2019-02-21T03:24:39.708Z,101336.00
2019-02-21T03:27:11.154Z,101335.00
2019-02-21T03:29:45.643Z,101326.00
2019-02-21T03:32:17.312Z,101324.00
2019-02-21T03:34:48.778Z,101322.00
2019-02-21T03:37:20.236Z,101312.00
2019-02-21T03:39:51.682Z,101329.00
2019-02-21T03:42:23.125Z,101323.00
2019-02-21T03:44:54.571Z,101321.00
2019-02-21T03:47:26.059Z,101322.00
2019-02-21T03:49:58.039Z,101325.00
2019-02-21T03:52:29.491Z,101332.00
2019-02-21T03:55:01.191Z,101323.00
2019-02-21T03:57:32.857Z,101335.00
2019-02-21T04:00:04.405Z,101331.00
2019-02-21T04:02:36.034Z,101327.00
2019-02-21T04:05:07.772Z,101331.00
2019-02-21T04:07:39.265Z,101333.00
2019-02-21T04:10:10.846Z,101326.00
2019-02-21T04:12:42.315Z,101336.00
2019-02-21T04:15:14.947Z,101334.00
2019-02-21T04:17:46.389Z,101334.00
2019-02-21T04:20:17.883Z,101330.00
2019-02-21T04:22:49.339Z,101324.00
2019-02-21T04:25:24.763Z,101335.00
2019-02-21T04:27:56.231Z,101330.00
2019-02-21T04:30:28.071Z,101328.00
2019-02-21T04:32:59.585Z,101322.00
2019-02-21T04:35:31.146Z,101314.00
2019-02-21T04:38:02.631Z,101315.00
2019-02-21T04:40:34.572Z,101320.00
2019-02-21T04:43:06.211Z,101303.00
2019-02-21T04:45:37.716Z,101295.00
2019-02-21T04:48:09.581Z,101306.00
2019-02-21T04:50:42.104Z,101306.00
2019-02-21T04:53:13.684Z,101305.00
2019-02-21T04:55:45.182Z,101306.00
2019-02-21T04:58:17.732Z,101303.00
2019-02-21T05:00:53.819Z,101306.00
2019-02-21T05:03:25.275Z,101311.00
2019-02-21T05:05:56.782Z,101311.00
2019-02-21T05:08:28.236Z,101320.00
2019-02-21T05:10:59.731Z,101314.00
2019-02-21T05:13:33.802Z,101319.00
2019-02-21T05:16:05.601Z,101314.00
2019-02-21T05:18:37.148Z,101313.00
2019-02-21T05:21:08.627Z,101323.00
2019-02-21T05:23:40.078Z,101309.00
2019-02-21T05:26:14.202Z,101306.00
2019-02-21T05:28:47.374Z,101307.00
2019-02-21T05:31:40.684Z,101312.00
2019-02-21T05:34:29.901Z,101315.00
2019-02-21T05:37:20.518Z,101313.00
2019-02-21T05:40:09.858Z,101309.00
2019-02-21T05:43:03.036Z,101310.00
2019-02-21T05:45:52.275Z,101309.00
2019-02-21T05:48:51.869Z,101309.00
2019-02-21T05:51:29.366Z,101310.00
2019-02-21T05:54:25.594Z,101305.00
2019-02-21T05:57:09.526Z,101307.00
2019-02-21T05:59:56.674Z,101306.00
2019-02-21T06:02:38.128Z,101310.00
2019-02-21T06:05:28.434Z,101314.00
2019-02-21T06:08:17.508Z,101325.00
2019-02-21T06:11:01.561Z,101319.00
2019-02-21T06:13:47.418Z,101317.00
2019-02-21T06:16:40.652Z,101317.00
2019-02-21T06:19:28.216Z,101309.00
2019-02-21T06:22:11.689Z,101308.00
2019-02-21T06:24:52.714Z,101308.00
2019-02-21T06:27:29.710Z,101314.00
2019-02-21T06:30:08.747Z,101306.00
2019-02-21T06:32:40.932Z,101321.00
2019-02-21T06:35:12.642Z,101316.00
2019-02-21T06:37:44.144Z,101324.00
2019-02-21T06:40:15.605Z,101328.00
2019-02-21T06:42:47.153Z,101322.00
2019-02-21T06:45:18.698Z,101324.00
2019-02-21T06:47:50.149Z,101324.00
2019-02-21T06:50:26.772Z,101321.00
2019-02-21T06:52:55.453Z,101335.00
2019-02-21T06:55:26.965Z,101343.00
2019-02-21T06:57:58.540Z,101340.00
2019-02-21T07:00:33.050Z,101347.00
2019-02-21T07:03:15.143Z,101345.00
2019-02-21T07:05:38.973Z,101352.00
2019-02-21T07:08:10.465Z,101350.00
2019-02-21T07:10:41.975Z,101344.00
2019-02-21T07:13:25.691Z,101347.00
2019-02-21T07:15:47.042Z,101348.00
2019-02-21T07:18:18.617Z,101360.00
2019-02-21T07:20:50.081Z,101344.00
2019-02-21T07:23:22.521Z,101346.00
2019-02-21T07:26:06.464Z,101348.00
2019-02-21T07:28:46.036Z,101358.00
2019-02-21T07:31:28.181Z,101357.00
2019-02-21T07:33:50.830Z,101370.00
2019-02-21T07:36:22.244Z,101360.00
2019-02-21T07:39:08.411Z,101370.00
2019-02-21T07:41:45.966Z,101378.00
2019-02-21T07:44:17.545Z,101358.00
2019-02-21T07:46:49.035Z,101361.00
2019-02-21T07:49:20.585Z,101356.00
2019-02-21T07:51:52.165Z,101359.00
2019-02-21T07:54:23.655Z,101372.00
2019-02-21T07:56:55.129Z,101382.00
2019-02-21T07:59:27.695Z,101398.00
2019-02-21T08:01:59.212Z,101398.00
2019-02-21T08:04:32.184Z,101394.00
2019-02-21T08:07:03.714Z,101395.00
2019-02-21T08:09:35.297Z,101403.00
2019-02-21T08:12:07.676Z,101410.00
2019-02-21T08:14:43.328Z,101419.00
2019-02-21T08:17:16.193Z,101422.00
2019-02-21T08:19:47.333Z,101385.00
2019-02-21T08:22:18.843Z,101419.00
2019-02-21T08:24:50.523Z,101420.00
2019-02-21T08:27:21.981Z,101431.00
2019-02-21T08:29:53.533Z,101425.00
2019-02-21T08:32:30.769Z,101428.00
2019-02-21T08:35:02.297Z,101425.00
2019-02-21T08:37:36.025Z,101418.00
2019-02-21T08:40:12.950Z,101423.00
2019-02-21T08:42:44.626Z,101429.00
2019-02-21T08:45:17.859Z,101428.00
2019-02-21T08:47:49.853Z,101431.00
2019-02-21T08:50:22.483Z,101438.00
2019-02-21T08:52:54.165Z,101434.00
2019-02-21T08:55:25.639Z,101430.00
2019-02-21T08:57:58.555Z,101429.00
2019-02-21T09:00:31.676Z,101429.00
2019-02-21T09:03:03.465Z,101434.00
2019-02-21T09:05:35.411Z,101433.00
2019-02-21T09:08:19.940Z,101436.00
2019-02-21T09:10:51.947Z,101439.00
2019-02-21T09:13:24.052Z,101437.00
2019-02-21T09:15:56.023Z,101437.00
2019-02-21T09:18:27.729Z,101440.00
2019-02-21T09:20:59.557Z,101419.00
2019-02-21T09:23:31.192Z,101410.00
2019-02-21T09:26:03.071Z,101405.00
2019-02-21T09:28:34.623Z,101420.00
2019-02-21T09:31:06.229Z,101423.00
2019-02-21T09:33:37.881Z,101411.00
2019-02-21T09:36:09.339Z,101411.00
2019-02-21T09:38:40.825Z,101406.00
2019-02-21T09:41:12.642Z,101411.00
2019-02-21T09:43:44.185Z,101407.00
2019-02-21T09:46:15.764Z,101408.00
2019-02-21T09:48:47.313Z,101401.00
2019-02-21T09:51:18.919Z,101404.00
2019-02-21T09:53:50.369Z,101401.00
2019-02-21T09:56:29.900Z,101402.00
2019-02-21T09:58:55.116Z,101413.00
2019-02-21T10:01:26.763Z,101419.00
2019-02-21T10:03:58.371Z,101419.00
2019-02-21T10:06:30.185Z,101408.00
2019-02-21T10:09:01.992Z,101420.00
2019-02-21T10:11:35.161Z,101404.00
2019-02-21T10:14:06.672Z,101411.00
2019-02-21T10:16:38.192Z,101416.00
2019-02-21T10:19:09.839Z,101410.00
2019-02-21T10:21:41.329Z,101411.00
2019-02-21T10:24:13.909Z,101396.00
2019-02-21T10:26:45.525Z,101401.00
2019-02-21T10:29:17.012Z,101402.00
2019-02-21T10:31:48.564Z,101412.00
2019-02-21T10:34:21.855Z,101423.00
2019-02-21T10:36:53.439Z,101419.00
2019-02-21T10:39:24.899Z,101421.00
2019-02-21T10:41:56.620Z,101420.00
2019-02-21T10:44:28.279Z,101413.00
2019-02-21T10:47:00.173Z,101421.00
2019-02-21T10:49:31.685Z,101425.00
2019-02-21T10:52:03.608Z,101417.00
2019-02-21T10:54:36.736Z,101419.00
2019-02-21T10:57:08.554Z,101411.00
2019-02-21T10:59:46.769Z,101414.00
2019-02-21T11:02:13.547Z,101419.00
2019-02-21T11:04:54.420Z,101411.00
2019-02-21T11:07:18.395Z,101426.00
2019-02-21T11:09:49.926Z,101437.00
2019-02-21T11:12:21.668Z,101432.00
2019-02-21T11:14:53.204Z,101440.00
2019-02-21T11:17:25.859Z,101433.00
2019-02-21T11:19:57.593Z,101430.00
2019-02-21T11:22:29.131Z,101422.00
2019-02-21T11:25:00.678Z,101426.00
2019-02-21T11:27:34.770Z,101424.00
2019-02-21T11:30:09.490Z,101424.00
2019-02-21T11:32:46.933Z,101428.00
2019-02-21T11:35:18.768Z,101429.00
2019-02-21T11:37:50.326Z,101428.00
2019-02-21T11:40:21.854Z,101436.00
2019-02-21T11:42:53.424Z,101436.00
2019-02-21T11:45:24.996Z,101437.00
2019-02-21T11:47:56.486Z,101429.00
2019-02-21T11:50:27.960Z,101425.00
2019-02-21T11:52:59.558Z,101432.00
2019-02-21T11:55:32.541Z,101439.00
2019-02-21T11:58:04.089Z,101428.00
2019-02-21T12:00:38.220Z,101416.00
2019-02-21T12:03:09.702Z,101424.00
2019-02-21T12:05:41.214Z,101435.00
2019-02-21T12:08:12.762Z,101433.00
2019-02-21T12:10:44.292Z,101422.00
2019-02-21T12:13:16.288Z,101429.00
2019-02-21T12:15:48.978Z,101426.00
2019-02-21T12:18:20.667Z,101426.00
2019-02-21T12:20:55.507Z,101437.00
2019-02-21T12:23:27.081Z,101435.00
2019-02-21T12:25:58.561Z,101439.00
2019-02-21T12:28:32.314Z,101433.00
2019-02-21T12:31:03.783Z,101439.00
2019-02-21T12:33:35.354Z,101437.00
2019-02-21T12:36:07.022Z,101439.00
2019-02-21T12:38:38.581Z,101450.00
2019-02-21T12:41:10.288Z,101450.00
2019-02-21T12:43:41.991Z,101444.00
2019-02-21T12:46:13.546Z,101451.00
2019-02-21T12:48:45.126Z,101449.00
2019-02-21T12:51:16.810Z,101449.00
2019-02-21T12:53:48.356Z,101456.00
2019-02-21T12:56:19.842Z,101455.00
2019-02-21T12:58:51.376Z,101442.00
2019-02-21T13:01:22.913Z,101432.00
2019-02-21T13:03:54.567Z,101438.00
2019-02-21T13:06:26.058Z,101439.00
2019-02-21T13:08:57.633Z,101441.00
2019-02-21T13:11:29.236Z,101433.00
2019-02-21T13:14:00.836Z,101439.00
2019-02-21T13:16:32.479Z,101435.00
2019-02-21T13:19:04.207Z,101444.00
2019-02-21T13:21:35.696Z,101442.00
2019-02-21T13:24:07.402Z,101435.00
2019-02-21T13:26:38.888Z,101428.00
2019-02-21T13:29:10.687Z,101429.00
2019-02-21T13:31:42.471Z,101431.00
2019-02-21T13:34:14.041Z,101436.00
2019-02-21T13:36:47.696Z,101440.00
2019-02-21T13:39:19.419Z,101436.00
2019-02-21T13:41:52.534Z,101438.00
2019-02-21T13:44:25.440Z,101438.00
2019-02-21T13:46:57.957Z,101439.00
2019-02-21T13:49:29.500Z,101441.00
2019-02-21T13:52:01.019Z,101446.00
2019-02-21T13:54:32.733Z,101447.00
2019-02-21T13:57:04.381Z,101453.00
2019-02-21T13:59:35.939Z,101456.00
2019-02-21T14:02:07.757Z,101450.00
2019-02-21T14:04:39.395Z,101452.00
2019-02-21T14:07:11.061Z,101454.00
2019-02-21T14:09:43.632Z,101458.00
2019-02-21T14:12:15.190Z,101463.00
2019-02-21T14:14:47.843Z,101453.00
2019-02-21T14:17:19.384Z,101463.00
2019-02-21T14:19:52.993Z,101461.00
2019-02-21T14:22:24.143Z,101469.00
2019-02-21T14:24:57.431Z,101467.00
2019-02-21T14:27:31.753Z,101460.00
2019-02-21T14:30:03.720Z,101474.00
2019-02-21T14:32:35.295Z,101473.00
2019-02-21T14:35:07.782Z,101474.00
2019-02-21T14:37:39.525Z,101465.00
2019-02-21T14:40:13.163Z,101478.00
2019-02-21T14:42:45.083Z,101477.00
2019-02-21T14:45:18.226Z,101467.00
2019-02-21T14:47:49.685Z,101470.00
2019-02-21T14:50:21.162Z,101473.00
2019-02-21T14:52:52.789Z,101474.00
2019-02-21T14:55:31.956Z,101472.00
2019-02-21T14:58:05.121Z,101470.00
2019-02-21T15:00:36.720Z,101467.00
2019-02-21T15:03:08.260Z,101474.00
2019-02-21T15:05:39.866Z,101475.00
2019-02-21T15:08:11.412Z,101486.00
2019-02-21T15:10:42.958Z,101490.00
2019-02-21T15:13:14.497Z,101485.00
2019-02-21T15:15:46.163Z,101490.00
2019-02-21T15:18:17.888Z,101482.00
2019-02-21T15:20:49.757Z,101480.00
2019-02-21T15:23:21.467Z,101494.00
2019-02-21T15:25:53.646Z,101489.00
2019-02-21T15:28:30.595Z,101491.00
2019-02-21T15:31:02.209Z,101494.00
2019-02-21T15:33:36.395Z,101483.00
2019-02-21T15:36:08.009Z,101478.00
2019-02-21T15:38:39.600Z,101478.00
2019-02-21T15:41:11.134Z,101489.00
2019-02-21T15:43:42.623Z,101482.00
2019-02-21T15:46:14.180Z,101497.00
2019-02-21T15:48:45.666Z,101490.00
2019-02-21T15:51:17.507Z,101497.00
2019-02-21T15:53:50.484Z,101503.00
2019-02-21T15:56:22.044Z,101514.00
2019-02-21T15:58:53.555Z,101509.00
2019-02-21T16:01:47.548Z,101500.00
2019-02-21T16:04:29.655Z,101509.00
2019-02-21T16:07:01.161Z,101507.00
2019-02-21T16:09:32.656Z,101518.00
2019-02-21T16:12:05.759Z,101514.00
2019-02-21T16:14:37.857Z,101523.00
2019-02-21T16:17:09.574Z,101528.00
2019-02-21T16:19:41.114Z,101527.00
2019-02-21T16:22:12.806Z,101523.00
2019-02-21T16:24:44.288Z,101538.00
2019-02-21T16:27:16.912Z,101540.00
2019-02-21T16:29:48.572Z,101537.00
2019-02-21T16:32:20.093Z,101546.00
2019-02-21T16:34:51.607Z,101540.00
2019-02-21T16:37:23.065Z,101544.00
2019-02-21T16:39:55.536Z,101533.00
2019-02-21T16:42:27.990Z,101534.00
2019-02-21T16:44:59.582Z,101541.00
2019-02-21T16:47:31.223Z,101536.00
2019-02-21T16:50:05.549Z,101534.00
2019-02-21T16:52:37.312Z,101539.00
2019-02-21T16:55:11.781Z,101530.00
2019-02-21T16:57:44.245Z,101548.00
2019-02-21T17:00:17.277Z,101551.00
2019-02-21T17:02:48.811Z,101555.00
2019-02-21T17:05:20.281Z,101566.00
2019-02-21T17:07:52.460Z,101569.00
2019-02-21T17:10:24.026Z,101563.00
2019-02-21T17:13:06.252Z,101567.00
2019-02-21T17:15:37.958Z,101569.00
2019-02-21T17:18:09.606Z,101570.00
2019-02-21T17:20:41.212Z,101569.00
2019-02-21T17:23:22.550Z,101568.00
2019-02-21T17:25:46.261Z,101578.00
2019-02-21T17:28:19.346Z,101585.00
2019-02-21T17:30:50.855Z,101582.00
2019-02-21T17:33:22.388Z,101579.00
2019-02-21T17:35:54.030Z,101589.00
2019-02-21T17:38:25.556Z,101590.00
2019-02-21T17:40:57.038Z,101585.00
2019-02-21T17:43:28.779Z,101583.00
2019-02-21T17:46:00.231Z,101591.00
2019-02-21T17:48:31.971Z,101597.00
2019-02-21T17:51:03.434Z,101582.00
2019-02-21T17:53:34.960Z,101590.00
2019-02-21T17:56:06.700Z,101592.00
2019-02-21T17:58:40.320Z,101624.00
2019-02-21T18:01:11.820Z,101595.00
2019-02-21T18:03:43.415Z,101601.00
2019-02-21T18:06:14.956Z,101613.00
2019-02-21T18:08:46.491Z,101618.00
2019-02-21T18:11:18.020Z,101608.00
2019-02-21T18:13:49.690Z,101604.00
2019-02-21T18:16:23.018Z,101612.00
2019-02-21T18:18:54.562Z,101609.00
2019-02-21T18:21:27.116Z,101616.00
2019-02-21T18:24:01.500Z,101622.00
2019-02-21T18:26:35.142Z,101624.00
2019-02-21T18:29:07.264Z,101637.00
2019-02-21T18:31:38.885Z,101634.00
2019-02-21T18:34:10.374Z,101633.00
2019-02-21T18:36:41.853Z,101641.00
2019-02-21T18:39:13.360Z,101646.00
2019-02-21T18:41:45.014Z,101641.00
2019-02-21T18:44:16.622Z,101647.00
2019-02-21T18:46:48.229Z,101643.00
2019-02-21T18:49:19.853Z,101651.00
2019-02-21T18:51:51.740Z,101650.00
2019-02-21T18:54:25.348Z,101651.00
2019-02-21T18:56:57.072Z,101647.00
2019-02-21T18:59:31.719Z,101656.00
2019-02-21T19:02:02.067Z,101644.00
2019-02-21T19:04:34.122Z,101662.00
2019-02-21T19:07:05.843Z,101655.00
2019-02-21T19:09:37.490Z,101653.00
2019-02-21T19:12:10.208Z,101688.00
2019-02-21T19:14:43.543Z,101661.00
2019-02-21T19:17:15.082Z,101665.00
2019-02-21T19:19:46.694Z,101665.00
2019-02-21T19:22:18.222Z,101677.00
2019-02-21T19:24:49.716Z,101671.00
2019-02-21T19:27:21.204Z,101667.00
2019-02-21T19:29:52.758Z,101667.00
2019-02-21T19:32:30.254Z,101673.00
2019-02-21T19:35:02.028Z,101694.00
2019-02-21T19:37:35.589Z,101686.00
2019-02-21T19:40:08.158Z,101699.00
2019-02-21T19:42:41.154Z,101700.00
2019-02-21T19:45:12.695Z,101713.00
2019-02-21T19:47:44.234Z,101708.00
2019-02-21T19:50:15.820Z,101724.00
2019-02-21T19:52:47.474Z,101715.00
2019-02-21T19:55:19.021Z,101721.00
2019-02-21T19:57:51.497Z,101722.00
2019-02-21T20:00:29.459Z,101725.00
2019-02-21T20:03:01.555Z,101725.00
2019-02-21T20:05:35.886Z,101737.00
2019-02-21T20:08:09.054Z,101728.00
2019-02-21T20:10:44.070Z,101727.00
2019-02-21T20:13:15.545Z,101722.00
2019-02-21T20:15:47.471Z,101726.00
2019-02-21T20:18:19.094Z,101727.00
2019-02-21T20:20:50.668Z,101738.00
2019-02-21T20:23:22.222Z,101741.00
2019-02-21T20:25:55.491Z,101748.00
2019-02-21T20:28:27.174Z,101754.00
2019-02-21T20:31:00.183Z,101757.00
2019-02-21T20:33:31.793Z,101776.00
2019-02-21T20:36:03.368Z,101766.00
2019-02-21T20:38:35.158Z,101766.00
2019-02-21T20:41:06.813Z,101771.00
2019-02-21T20:43:40.461Z,101771.00
2019-02-21T20:46:12.696Z,101777.00
2019-02-21T20:48:45.030Z,101765.00
2019-02-21T20:51:16.627Z,101769.00
2019-02-21T20:53:48.877Z,101799.00
2019-02-21T20:56:20.482Z,101787.00
2019-02-21T20:58:51.987Z,101802.00
2019-02-21T21:01:23.849Z,101810.00
2019-02-21T21:03:55.358Z,101795.00
2019-02-21T21:06:27.063Z,101803.00
2019-02-21T21:09:00.220Z,101803.00
2019-02-21T21:11:33.411Z,101805.00
2019-02-21T21:14:05.443Z,101810.00
2019-02-21T21:16:37.030Z,101806.00
2019-02-21T21:19:08.522Z,101805.00
2019-02-21T21:21:41.620Z,101803.00
2019-02-21T21:24:14.585Z,101813.00
2019-02-21T21:26:47.157Z,101816.00
2019-02-21T21:29:22.257Z,101823.00
2019-02-21T21:31:59.283Z,101814.00
2019-02-21T21:34:30.994Z,101823.00
2019-02-21T21:37:02.620Z,101821.00
2019-02-21T21:39:34.276Z,101823.00
2019-02-21T21:42:08.259Z,101845.00
2019-02-21T21:44:39.122Z,101836.00
2019-02-21T21:47:10.829Z,101828.00
2019-02-21T21:49:42.376Z,101830.00
2019-02-21T21:52:13.951Z,101827.00
2019-02-21T21:54:45.400Z,101834.00
2019-02-21T21:57:16.887Z,101842.00
2019-02-21T21:59:48.422Z,101849.00
2019-02-21T22:02:20.083Z,101843.00
2019-02-21T22:04:51.617Z,101852.00
2019-02-21T22:07:23.621Z,101859.00
2019-02-21T22:09:55.354Z,101863.00
2019-02-21T22:12:30.115Z,101870.00
2019-02-21T22:15:02.848Z,101857.00
2019-02-21T22:17:35.957Z,101865.00
2019-02-21T22:20:07.984Z,101870.00
2019-02-21T22:22:39.498Z,101872.00
2019-02-21T22:25:11.874Z,101874.00
2019-02-21T22:27:45.374Z,101873.00
2019-02-21T22:30:17.722Z,101887.00
2019-02-21T22:32:49.205Z,101880.00
2019-02-21T22:35:20.665Z,101885.00
2019-02-21T22:37:53.721Z,101892.00
2019-02-21T22:40:28.480Z,101897.00
2019-02-21T22:43:08.779Z,101891.00
2019-02-21T22:45:49.187Z,101889.00
2019-02-21T22:48:20.693Z,101897.00
2019-02-21T22:50:52.258Z,101904.00
2019-02-21T22:53:23.759Z,101904.00
2019-02-21T22:55:55.226Z,101905.00
2019-02-21T22:58:29.733Z,101904.00
2019-02-21T23:01:29.232Z,101903.00
2019-02-21T23:04:28.768Z,101902.00
2019-02-21T23:07:40.760Z,101912.00
2019-02-21T23:10:22.302Z,101928.00
2019-02-21T23:13:00.908Z,101929.00
2019-02-21T23:15:43.111Z,101926.00
2019-02-21T23:18:19.888Z,101921.00
2019-02-21T23:21:14.263Z,101923.00
2019-02-21T23:23:49.530Z,101939.00
2019-02-21T23:26:46.723Z,101943.00
2019-02-21T23:29:19.800Z,101951.00
2019-02-21T23:31:51.340Z,101955.00
2019-02-21T23:34:33.538Z,101955.00
2019-02-21T23:37:05.268Z,101957.00
2019-02-21T23:39:41.638Z,101960.00
2019-02-21T23:43:14.870Z,101965.00
2019-02-21T23:45:46.480Z,101981.00
2019-02-21T23:48:17.945Z,101978.00
2019-02-21T23:50:49.554Z,101981.00
2019-02-21T23:53:21.090Z,101987.00
2019-02-21T23:55:52.529Z,101987.00
2019-02-21T23:58:24.024Z,101998.00
